createdAt,value
2019-02-21T00:01:18.686Z,62.18
2019-02-21T00:06:24.321Z,61.88
2019-02-21T00:11:30.498Z,62.15
2019-02-21T00:16:36.624Z,62.49
2019-02-21T00:21:42.702Z,62.22
2019-02-21T00:26:48.306Z,62.52
2019-02-21T00:31:54.620Z,62.47
2019-02-21T00:37:00.705Z,62.59
2019-02-21T00:42:06.808Z,62.44
2019-02-21T00:47:13.279Z,62.30
2019-02-21T00:52:19.372Z,62.75
2019-02-21T00:57:25.484Z,62.51
2019-02-21T01:02:31.571Z,62.40
2019-02-21T01:07:38.201Z,62.45
2019-02-21T01:12:44.119Z,62.85
2019-02-21T01:17:49.930Z,62.87
2019-02-21T01:22:55.609Z,63.25
2019-02-21T01:28:01.716Z,63.20
2019-02-21T01:33:07.379Z,63.33
2019-02-21T01:38:13.282Z,63.59
2019-02-21T01:43:18.932Z,63.66
2019-02-21T01:48:24.875Z,63.86
2019-02-21T01:53:30.555Z,63.96
2019-02-21T01:58:36.508Z,64.20
2019-02-21T02:03:42.186Z,64.72
2019-02-21T02:08:47.944Z,64.42
2019-02-21T02:13:53.567Z,64.45
2019-02-21T02:18:59.271Z,64.47
2019-02-21T02:24:04.954Z,64.61
2019-02-21T02:29:10.983Z,64.63
2019-02-21T02:34:16.872Z,64.48
2019-02-21T02:39:22.483Z,63.91
2019-02-21T02:44:28.126Z,64.46
2019-02-21T02:49:33.967Z,65.94
2019-02-21T02:54:39.580Z,66.69
2019-02-21T02:59:45.522Z,66.78
2019-02-21T03:04:51.232Z,66.07
2019-02-21T03:09:57.085Z,65.92
2019-02-21T03:15:02.677Z,66.70
2019-02-21T03:20:09.506Z,67.79
2019-02-21T03:25:15.173Z,65.80
2019-02-21T03:30:20.993Z,64.51
2019-02-21T03:35:26.671Z,63.98
2019-02-21T03:40:32.782Z,63.70
2019-02-21T03:45:38.894Z,64.36
2019-02-21T03:50:44.985Z,65.58
2019-02-21T03:55:50.698Z,65.49
2019-02-21T04:00:56.522Z,64.78
2019-02-21T04:06:02.317Z,65.32
2019-02-21T04:11:08.209Z,64.95
2019-02-21T04:16:13.826Z,64.94
2019-02-21T04:21:19.804Z,65.32
2019-02-21T04:26:25.674Z,65.49
2019-02-21T04:31:31.303Z,66.04
2019-02-21T04:36:36.929Z,65.93
2019-02-21T04:41:42.670Z,65.25
2019-02-21T04:46:48.333Z,65.23
2019-02-21T04:51:54.070Z,64.05
2019-02-21T04:56:59.674Z,64.47
2019-02-21T05:02:05.700Z,64.00
2019-02-21T05:07:11.594Z,64.29
2019-02-21T05:12:17.412Z,64.55
2019-02-21T05:17:23.517Z,65.50
2019-02-21T05:22:29.318Z,66.57
2019-02-21T05:27:37.834Z,67.12
2019-02-21T05:32:55.295Z,67.70
2019-02-21T05:38:10.128Z,67.82
2019-02-21T05:43:44.220Z,67.31
2019-02-21T05:49:17.017Z,67.63
2019-02-21T05:54:31.119Z,67.76
2019-02-21T06:00:10.806Z,67.43
2019-02-21T06:05:22.525Z,67.25
2019-02-21T06:10:59.077Z,67.76
2019-02-21T06:16:21.541Z,67.64
2019-02-21T06:21:50.897Z,68.52
2019-02-21T06:27:15.684Z,68.58
2019-02-21T06:32:21.595Z,66.93
2019-02-21T06:37:27.212Z,68.37
2019-02-21T06:42:33.009Z,66.98
2019-02-21T06:47:38.671Z,67.71
2019-02-21T06:52:44.523Z,67.32
2019-02-21T06:57:50.237Z,66.69
2019-02-21T07:02:56.444Z,65.79
2019-02-21T07:08:02.340Z,65.49
2019-02-21T07:13:07.969Z,65.08
2019-02-21T07:18:13.822Z,64.25
2019-02-21T07:23:19.978Z,63.76
2019-02-21T07:28:27.742Z,63.94
2019-02-21T07:33:33.278Z,63.37
2019-02-21T07:38:38.909Z,63.84
2019-02-21T07:43:45.229Z,63.32
2019-02-21T07:48:51.024Z,63.66
2019-02-21T07:53:56.971Z,63.48
2019-02-21T07:59:03.010Z,64.32
2019-02-21T08:04:08.775Z,63.09
2019-02-21T08:09:15.005Z,62.75
2019-02-21T08:14:20.892Z,63.87
2019-02-21T08:19:26.872Z,62.58
2019-02-21T08:24:32.517Z,62.22
2019-02-21T08:29:38.464Z,62.58
2019-02-21T08:34:48.276Z,61.89
2019-02-21T08:39:54.629Z,61.73
2019-02-21T08:45:00.378Z,62.10
2019-02-21T08:50:06.328Z,61.24
2019-02-21T08:55:11.973Z,61.15
2019-02-21T09:00:17.829Z,60.97
2019-02-21T09:05:23.739Z,60.93
2019-02-21T09:10:29.356Z,60.09
2019-02-21T09:15:35.177Z,60.33
2019-02-21T09:20:41.126Z,60.10
2019-02-21T09:25:49.492Z,62.08
2019-02-21T09:30:54.445Z,59.75
2019-02-21T09:36:00.283Z,58.72
2019-02-21T09:41:06.019Z,59.28
2019-02-21T09:46:12.571Z,58.80
2019-02-21T09:51:18.537Z,59.29
2019-02-21T09:56:30.276Z,58.09
2019-02-21T10:01:32.352Z,58.16
2019-02-21T10:06:38.382Z,58.19
2019-02-21T10:11:44.363Z,57.32
2019-02-21T10:16:50.091Z,57.26
2019-02-21T10:21:55.774Z,56.90
2019-02-21T10:27:01.698Z,57.44
2019-02-21T10:32:07.546Z,56.01
2019-02-21T10:37:13.310Z,56.25
2019-02-21T10:42:18.944Z,55.76
2019-02-21T10:47:24.626Z,57.96
2019-02-21T10:52:30.656Z,54.73
2019-02-21T10:57:36.511Z,54.46
2019-02-21T11:02:42.302Z,53.56
2019-02-21T11:07:48.531Z,53.65
2019-02-21T11:12:54.380Z,53.96
2019-02-21T11:18:00.003Z,54.73
2019-02-21T11:23:06.623Z,54.84
2019-02-21T11:28:12.784Z,54.77
2019-02-21T11:33:18.747Z,53.41
2019-02-21T11:38:25.013Z,54.33
2019-02-21T11:43:31.079Z,54.44
2019-02-21T11:48:36.698Z,54.24
2019-02-21T11:53:42.533Z,53.92
2019-02-21T11:58:48.210Z,53.19
2019-02-21T12:03:54.442Z,54.28
2019-02-21T12:09:00.370Z,53.07
2019-02-21T12:14:06.372Z,53.30
2019-02-21T12:19:12.476Z,54.09
2019-02-21T12:24:18.110Z,53.15
2019-02-21T12:29:23.840Z,53.50
2019-02-21T12:34:29.754Z,54.01
2019-02-21T12:39:36.397Z,54.81
2019-02-21T12:44:42.321Z,53.95
2019-02-21T12:49:48.552Z,54.64
2019-02-21T12:54:54.481Z,53.85
2019-02-21T13:00:00.419Z,54.11
2019-02-21T13:05:06.984Z,54.31
2019-02-21T13:10:14.654Z,53.64
2019-02-21T13:15:20.571Z,54.16
2019-02-21T13:20:26.218Z,53.94
2019-02-21T13:25:31.926Z,54.02
2019-02-21T13:30:37.905Z,54.22
2019-02-21T13:35:52.237Z,54.10
2019-02-21T13:40:51.476Z,53.68
2019-02-21T13:45:58.077Z,53.50
2019-02-21T13:51:03.678Z,54.77
2019-02-21T13:56:09.482Z,53.91
2019-02-21T14:01:15.396Z,54.16
2019-02-21T14:06:21.164Z,54.48
2019-02-21T14:11:27.148Z,55.09
2019-02-21T14:16:32.965Z,55.95
2019-02-21T14:21:38.773Z,55.98
2019-02-21T14:26:44.932Z,56.71
2019-02-21T14:31:50.752Z,57.12
2019-02-21T14:36:56.485Z,58.08
2019-02-21T14:42:04.502Z,59.16
2019-02-21T14:47:10.517Z,61.65
2019-02-21T14:52:16.423Z,62.16
2019-02-21T14:57:22.093Z,63.20
2019-02-21T15:02:28.357Z,63.77
2019-02-21T15:07:34.365Z,63.60
2019-02-21T15:12:40.360Z,63.53
2019-02-21T15:17:46.595Z,64.20
2019-02-21T15:22:53.996Z,64.25
2019-02-21T15:28:00.064Z,64.89
2019-02-21T15:33:06.380Z,65.74
2019-02-21T15:38:19.900Z,66.94
2019-02-21T15:43:20.027Z,67.28
2019-02-21T15:48:26.093Z,68.42
2019-02-21T15:53:32.174Z,69.52
2019-02-21T15:58:38.309Z,71.08
2019-02-21T16:03:44.606Z,72.26
2019-02-21T16:08:50.382Z,72.83
2019-02-21T16:14:03.351Z,74.70
2019-02-21T16:19:04.391Z,76.20
2019-02-21T16:24:10.078Z,76.86
2019-02-21T16:29:16.109Z,77.91
2019-02-21T16:34:22.214Z,79.20
2019-02-21T16:39:28.349Z,79.93
2019-02-21T16:44:33.960Z,80.08
2019-02-21T16:49:39.924Z,80.36
2019-02-21T16:54:46.249Z,81.02
2019-02-21T16:59:52.190Z,81.18
2019-02-21T17:04:58.578Z,81.90
2019-02-21T17:10:04.628Z,82.05
2019-02-21T17:15:11.918Z,82.25
2019-02-21T17:20:18.150Z,82.91
2019-02-21T17:25:24.005Z,83.57
2019-02-21T17:30:29.775Z,85.05
2019-02-21T17:35:35.516Z,86.11
2019-02-21T17:40:41.338Z,86.46
2019-02-21T17:45:47.539Z,86.35
2019-02-21T17:50:53.913Z,86.90
2019-02-21T17:55:59.559Z,86.68
2019-02-21T18:01:05.612Z,87.22
2019-02-21T18:06:11.351Z,87.91
2019-02-21T18:11:17.422Z,88.94
2019-02-21T18:16:23.311Z,88.11
2019-02-21T18:21:29.413Z,87.80
2019-02-21T18:26:35.097Z,87.96
2019-02-21T18:31:41.433Z,88.38
2019-02-21T18:36:47.230Z,88.89
2019-02-21T18:41:53.463Z,88.71
2019-02-21T18:46:59.639Z,88.85
2019-02-21T18:52:05.385Z,88.69
2019-02-21T18:57:12.317Z,88.94
2019-02-21T19:02:19.931Z,89.26
2019-02-21T19:07:25.589Z,89.58
2019-02-21T19:12:31.967Z,89.18
2019-02-21T19:17:37.577Z,88.14
2019-02-21T19:22:43.388Z,88.24
2019-02-21T19:27:49.121Z,88.67
2019-02-21T19:32:54.870Z,89.28
2019-02-21T19:38:09.813Z,90.02
2019-02-21T19:43:08.015Z,90.31
2019-02-21T19:48:13.732Z,90.83
2019-02-21T19:53:19.422Z,91.17
2019-02-21T19:58:25.273Z,91.41
2019-02-21T20:03:30.880Z,91.83
2019-02-21T20:08:39.627Z,91.50
2019-02-21T20:13:45.400Z,91.67
2019-02-21T20:18:51.137Z,91.79
2019-02-21T20:23:56.768Z,91.91
2019-02-21T20:29:02.573Z,91.73
2019-02-21T20:34:08.257Z,92.21
2019-02-21T20:39:14.142Z,91.99
2019-02-21T20:44:19.748Z,91.96
2019-02-21T20:49:25.560Z,92.39
2019-02-21T20:54:31.385Z,92.43
2019-02-21T20:59:37.131Z,92.50
2019-02-21T21:04:42.838Z,92.92
2019-02-21T21:09:48.722Z,93.17
2019-02-21T21:14:54.364Z,93.40
2019-02-21T21:20:00.335Z,93.73
2019-02-21T21:25:07.180Z,93.70
2019-02-21T21:30:13.034Z,93.82
2019-02-21T21:35:19.083Z,93.80
2019-02-21T21:40:25.173Z,93.60
2019-02-21T21:45:30.814Z,93.60
2019-02-21T21:50:36.512Z,93.66
2019-02-21T21:55:42.180Z,93.82
2019-02-21T22:00:48.434Z,93.84
2019-02-21T22:05:54.596Z,93.78
2019-02-21T22:11:01.105Z,93.60
2019-02-21T22:16:07.752Z,93.71
2019-02-21T22:21:14.045Z,93.83
2019-02-21T22:26:20.379Z,93.64
2019-02-21T22:31:26.732Z,93.68
2019-02-21T22:36:32.926Z,93.84
2019-02-21T22:41:39.449Z,93.90
2019-02-21T22:46:45.992Z,93.85
2019-02-21T22:51:52.171Z,93.93
2019-02-21T22:56:58.223Z,94.06
2019-02-21T23:02:04.492Z,94.29
2019-02-21T23:07:42.328Z,94.15
2019-02-21T23:12:47.240Z,94.04
2019-02-21T23:17:53.312Z,93.97
2019-02-21T23:22:59.522Z,93.87
2019-02-21T23:28:06.061Z,93.83
2019-02-21T23:33:12.743Z,93.95
2019-02-21T23:38:19.342Z,94.00
2019-02-21T23:43:26.096Z,94.06
2019-02-21T23:48:32.839Z,93.97
2019-02-21T23:53:38.206Z,93.98
2019-02-21T23:58:44.524Z,94.20
